Time;durP1;ratioP1;P1;durP2;ratioP2;P2;SDS_P1;SDS_P2;PMS_P1;PMS_P2;Temp;Humidity;BMP_temperature;BMP_pressure;BME280_temperature;BME280_humidity;BME280_pressure;Samples;Min_cycle;Max_cycle;Signal;HPM_P1;HPM_P2
2021/07/08 07:52:28;;;;;;;5.00;2.77;;;24.70;1.00;;;;;;4834333;29;20686;-57
2021/07/08 07:54:54;;;;;;;6.67;2.80;;;24.90;1.00;;;;;;4809038;29;20503;-58
2021/07/08 07:57:19;;;;;;;3.30;2.53;;;24.90;1.00;;;;;;4819054;29;20603;-57
2021/07/08 07:59:45;;;;;;;3.30;2.50;;;24.70;1.00;;;;;;4813376;29;20216;-57
2021/07/08 08:02:13;;;;;;;2.60;2.40;;;24.50;1.00;;;;;;4803319;29;20200;-58
2021/07/08 08:04:45;;;;;;;4.10;3.70;;;24.50;1.00;;;;;;4816638;29;20324;-58
2021/07/08 08:09:56;;;;;;;4.40;2.30;;;24.70;1.00;;;;;;4817897;29;20450;-56
2021/07/08 08:12:23;;;;;;;4.77;2.40;;;24.60;1.00;;;;;;4816311;29;20473;-59
2021/07/08 08:14:49;;;;;;;5.37;2.40;;;24.60;1.00;;;;;;4816753;29;20431;-57
2021/07/08 08:17:15;;;;;;;1.83;1.63;;;24.50;1.00;;;;;;4817431;29;20814;-57
2021/07/08 08:19:40;;;;;;;2.87;2.13;;;24.20;1.00;;;;;;4810551;29;20428;-57
2021/07/08 08:22:06;;;;;;;3.13;1.97;;;24.10;1.00;;;;;;4816427;29;20239;-56
2021/07/08 08:24:33;;;;;;;2.23;1.70;;;24.20;1.00;;;;;;4818106;29;20247;-56
2021/07/08 08:26:59;;;;;;;1.77;1.67;;;24.50;1.00;;;;;;4897217;29;20938;-59
2021/07/08 08:29:27;;;;;;;2.10;1.90;;;24.80;1.00;;;;;;5019288;28;20479;-57
2021/07/08 08:31:52;;;;;;;4.60;1.90;;;25.10;1.00;;;;;;5106379;28;20335;-58
2021/07/08 08:34:18;;;;;;;2.30;1.50;;;25.40;1.00;;;;;;5106596;28;20971;-60
2021/07/08 08:36:45;;;;;;;4.97;1.67;;;25.30;1.00;;;;;;5099206;28;20206;-58
2021/07/08 08:39:11;;;;;;;4.67;2.50;;;25.50;1.00;;;;;;5100672;28;20189;-57
2021/07/08 08:41:37;;;;;;;2.93;1.70;;;25.60;1.00;;;;;;5116646;28;20474;-58
2021/07/08 08:44:04;;;;;;;4.27;2.10;;;25.50;1.00;;;;;;5106804;28;20992;-57
2021/07/08 08:46:33;;;;;;;3.83;1.80;;;25.50;1.00;;;;;;5104042;28;20440;-57
2021/07/08 08:48:59;;;;;;;2.13;1.93;;;25.60;1.00;;;;;;5122099;27;20465;-57
2021/07/08 08:51:25;;;;;;;3.20;1.77;;;25.90;1.00;;;;;;5145015;27;20709;-57
2021/07/08 08:53:51;;;;;;;2.70;2.17;;;25.90;1.00;;;;;;5142275;27;20461;-57
2021/07/08 08:56:16;;;;;;;5.23;1.87;;;26.10;1.00;;;;;;5137054;27;20192;-58
2021/07/08 08:58:42;;;;;;;4.43;2.10;;;26.30;1.00;;;;;;5134365;27;20491;-59
2021/07/08 09:04:35;;;;;;;8.07;3.07;;;25.90;1.00;;;;;;5099542;27;20208;-58
2021/07/08 09:07:23;;;;;;;2.87;1.93;;;25.90;1.00;;;;;;5133070;27;20409;-58
2021/07/08 09:09:59;;;;;;;6.00;2.47;;;25.60;1.00;;;;;;5133930;27;20565;-58
2021/07/08 09:12:26;;;;;;;2.10;1.70;;;25.60;1.00;;;;;;5115828;27;20401;-58
2021/07/08 09:15:13;;;;;;;1.70;1.57;;;25.70;1.00;;;;;;5111927;27;20441;-58
2021/07/08 09:17:43;;;;;;;5.00;2.10;;;25.70;1.00;;;;;;5134159;27;20432;-58
2021/07/08 09:20:12;;;;;;;2.10;1.57;;;25.70;1.00;;;;;;5133992;27;20413;-58
2021/07/08 09:22:38;;;;;;;7.13;2.00;;;25.60;1.00;;;;;;5138574;27;20406;-59
2021/07/08 09:25:19;;;;;;;3.57;1.57;;;25.60;1.00;;;;;;5133094;27;20466;-58
2021/07/08 09:27:46;;;;;;;3.10;1.90;;;25.90;1.00;;;;;;5133931;27;20455;-57
2021/07/08 09:30:29;;;;;;;3.30;1.90;;;26.10;1.00;;;;;;5133550;27;20442;-59
2021/07/08 09:32:55;;;;;;;4.43;1.63;;;26.20;1.00;;;;;;5132611;27;20498;-58
2021/07/08 09:35:36;;;;;;;3.00;2.43;;;26.70;1.00;;;;;;5133814;27;20435;-57
2021/07/08 09:38:10;;;;;;;2.57;1.30;;;26.70;1.00;;;;;;5128816;27;20633;-59
2021/07/08 09:40:36;;;;;;;3.40;2.13;;;26.50;1.00;;;;;;5133728;27;20438;-59
2021/07/08 09:43:02;;;;;;;2.80;1.90;;;26.90;1.00;;;;;;5132185;27;20502;-59
2021/07/08 09:45:29;;;;;;;2.20;2.00;;;26.90;1.00;;;;;;5132333;27;21000;-58
2021/07/08 09:48:18;;;;;;;3.57;2.53;;;26.70;1.00;;;;;;5133589;27;20451;-58
2021/07/08 09:50:44;;;;;;;3.30;2.30;;;26.80;1.00;;;;;;5114952;27;20437;-57
2021/07/08 09:53:18;;;;;;;2.20;1.83;;;26.70;1.00;;;;;;5133254;27;20405;-57
2021/07/08 09:56:07;;;;;;;2.70;2.03;;;26.50;1.00;;;;;;5133161;27;20409;-58
2021/07/08 09:58:35;;;;;;;1.93;1.83;;;26.50;1.00;;;;;;5133319;27;20394;-57
2021/07/08 10:01:13;;;;;;;1.90;1.70;;;26.60;1.00;;;;;;5133578;27;20451;-57
2021/07/08 10:03:40;;;;;;;2.20;2.00;;;26.60;1.00;;;;;;5133369;27;20782;-60
2021/07/08 10:06:07;;;;;;;2.70;2.50;;;26.60;1.00;;;;;;5131669;27;20431;-57
2021/07/08 10:08:35;;;;;;;6.87;2.20;;;26.80;1.00;;;;;;5132098;27;20416;-59
2021/07/08 10:11:01;;;;;;;3.40;2.07;;;26.90;1.00;;;;;;5114797;27;20406;-57
2021/07/08 10:13:27;;;;;;;2.63;2.43;;;27.10;1.00;;;;;;5133009;27;20922;-59
2021/07/08 10:19:22;;;;;;;2.90;1.80;;;27.80;1.00;;;;;;5054202;27;20449;-57
2021/07/08 10:21:49;;;;;;;3.30;2.13;;;27.00;1.00;;;;;;5133147;27;20435;-58
2021/07/08 10:24:16;;;;;;;2.30;2.10;;;26.90;1.00;;;;;;5131802;27;20429;-58
2021/07/08 10:26:44;;;;;;;2.60;2.40;;;27.00;1.00;;;;;;5133183;27;20884;-57
2021/07/08 10:29:11;;;;;;;3.50;1.57;;;27.10;1.00;;;;;;5132618;27;20434;-56
2021/07/08 10:31:40;;;;;;;3.20;1.83;;;26.70;1.00;;;;;;5132710;27;20431;-58
2021/07/08 10:34:06;;;;;;;5.03;2.13;;;26.40;1.00;;;;;;5132871;27;20437;-58
2021/07/08 10:36:32;;;;;;;2.10;1.70;;;26.40;1.00;;;;;;5132082;27;20465;-58
2021/07/08 10:39:04;;;;;;;2.50;2.13;;;26.40;1.00;;;;;;5132688;27;20439;-57
2021/07/08 10:41:29;;;;;;;5.13;2.17;;;26.30;1.00;;;;;;5132398;27;20427;-59
2021/07/08 10:43:55;;;;;;;2.13;2.03;;;26.10;1.00;;;;;;5132446;27;20486;-58
2021/07/08 10:46:34;;;;;;;2.20;2.07;;;25.90;1.00;;;;;;5129201;27;20526;-57
2021/07/08 10:49:10;;;;;;;2.10;1.70;;;26.00;1.00;;;;;;5132232;27;20681;-57
2021/07/08 10:51:37;;;;;;;2.60;2.40;;;25.90;1.00;;;;;;5131536;27;20810;-58
2021/07/08 10:54:30;;;;;;;2.37;1.97;;;25.90;1.00;;;;;;5132245;27;20422;-59
2021/07/08 10:56:58;;;;;;;2.80;2.20;;;25.80;1.00;;;;;;5127957;27;20413;-57
2021/07/08 10:59:42;;;;;;;3.27;2.03;;;25.90;1.00;;;;;;5132103;27;20435;-60
2021/07/08 11:02:08;;;;;;;2.40;2.20;;;26.00;1.00;;;;;;5132207;27;20409;-58
2021/07/08 11:04:51;;;;;;;2.67;2.00;;;26.50;1.00;;;;;;5129173;27;20542;-58
2021/07/08 11:07:19;;;;;;;2.67;2.40;;;26.90;1.00;;;;;;5129797;27;20441;-58
2021/07/08 11:10:03;;;;;;;2.63;2.10;;;27.10;1.00;;;;;;5132192;27;20955;-57
2021/07/08 11:12:40;;;;;;;2.57;2.30;;;26.90;1.00;;;;;;5131714;27;20430;-59
2021/07/08 11:15:07;;;;;;;2.23;2.03;;;26.50;1.00;;;;;;5130179;27;20442;-57
2021/07/08 11:17:47;;;;;;;4.13;2.50;;;26.50;1.00;;;;;;5131890;27;20787;-58
2021/07/08 11:20:31;;;;;;;2.37;2.17;;;26.50;1.00;;;;;;5131425;27;20458;-59
2021/07/08 11:23:36;;;;;;;2.43;2.10;;;26.50;1.00;;;;;;5131635;27;20917;-59
2021/07/08 11:26:02;;;;;;;2.43;2.30;;;26.50;1.00;;;;;;5131380;27;20466;-57
2021/07/08 11:28:30;;;;;;;2.30;2.10;;;26.70;1.00;;;;;;5132126;27;20429;-58
2021/07/08 11:31:00;;;;;;;2.47;2.10;;;26.80;1.00;;;;;;5131680;27;20185;-58
2021/07/08 11:33:26;;;;;;;2.10;1.90;;;26.90;1.00;;;;;;5131505;27;20431;-59
2021/07/08 11:35:58;;;;;;;3.70;1.93;;;26.90;1.00;;;;;;5130455;27;20448;-59
2021/07/08 11:38:25;;;;;;;3.77;2.13;;;27.30;1.00;;;;;;5131467;27;20437;-58
2021/07/08 11:40:52;;;;;;;2.30;2.00;;;27.40;1.00;;;;;;5130854;27;21099;-58
2021/07/08 11:43:27;;;;;;;2.03;1.93;;;27.70;1.00;;;;;;5131132;27;20420;-58
2021/07/08 11:45:56;;;;;;;2.40;2.30;;;27.90;1.00;;;;;;5129825;27;20439;-58
2021/07/08 11:48:31;;;;;;;2.70;2.50;;;27.90;1.00;;;;;;5130755;27;20521;-58
2021/07/08 11:50:57;;;;;;;3.13;2.43;;;28.40;1.00;;;;;;5128283;27;20412;-58
2021/07/08 11:53:24;;;;;;;2.60;2.40;;;29.20;1.00;;;;;;5131917;27;20484;-59
2021/07/08 11:55:50;;;;;;;4.17;2.30;;;29.20;1.00;;;;;;5125443;27;20851;-57
2021/07/08 11:58:23;;;;;;;2.90;2.30;;;28.80;1.00;;;;;;5128299;27;20526;-58
2021/07/08 12:00:54;;;;;;;3.07;2.33;;;28.30;1.00;;;;;;5130711;27;20433;-58
2021/07/08 12:03:24;;;;;;;5.03;2.33;;;27.70;1.00;;;;;;5130276;27;20434;-57
2021/07/08 12:06:02;;;;;;;2.50;2.10;;;27.30;1.00;;;;;;5124978;27;20447;-59
2021/07/08 12:08:33;;;;;;;3.40;2.40;;;26.90;1.00;;;;;;5130776;27;20450;-57
2021/07/08 12:11:10;;;;;;;2.50;2.30;;;27.20;1.00;;;;;;5143449;27;20831;-58
2021/07/08 12:13:53;;;;;;;2.70;2.50;;;27.30;1.00;;;;;;5151505;27;20430;-58
2021/07/08 12:16:30;;;;;;;3.83;2.27;;;27.70;1.00;;;;;;5136309;27;20426;-58
2021/07/08 12:18:56;;;;;;;2.73;2.53;;;27.60;1.00;;;;;;5130326;27;20469;-58
2021/07/08 12:21:31;;;;;;;3.27;2.17;;;27.40;1.00;;;;;;5112622;27;20435;-59
2021/07/08 12:24:00;;;;;;;2.60;2.40;;;27.20;1.00;;;;;;5130850;27;20532;-58
2021/07/08 12:26:33;;;;;;;2.83;2.07;;;26.90;1.00;;;;;;5125784;27;20431;-58
2021/07/08 12:29:12;;;;;;;2.33;2.23;;;26.60;1.00;;;;;;5151269;27;20431;-58
2021/07/08 12:31:47;;;;;;;2.80;2.60;;;26.60;1.00;;;;;;5134820;27;20439;-57
2021/07/08 12:34:13;;;;;;;2.50;2.30;;;26.80;1.00;;;;;;5153469;27;20447;-57
2021/07/08 12:36:39;;;;;;;3.07;2.80;;;27.00;1.00;;;;;;5131926;27;20435;-58
2021/07/08 12:39:05;;;;;;;3.97;2.40;;;27.30;1.00;;;;;;5131829;27;20437;-58
2021/07/08 12:41:32;;;;;;;2.53;2.33;;;27.20;1.00;;;;;;5128418;27;20187;-56
2021/07/08 12:43:59;;;;;;;2.60;2.40;;;27.50;1.00;;;;;;5132050;27;20848;-58
2021/07/08 12:46:31;;;;;;;2.77;2.40;;;27.00;1.00;;;;;;5132199;27;20442;-58
2021/07/08 12:48:57;;;;;;;5.47;2.67;;;26.70;1.00;;;;;;5132692;27;20886;-58
2021/07/08 12:51:23;;;;;;;2.90;2.60;;;26.50;1.00;;;;;;5109199;27;20490;-57
2021/07/08 12:53:49;;;;;;;4.87;3.00;;;26.50;1.00;;;;;;5130883;27;20201;-59
2021/07/08 12:56:15;;;;;;;3.50;3.20;;;26.50;1.00;;;;;;5133387;27;20438;-58
2021/07/08 12:58:41;;;;;;;2.93;2.70;;;26.80;1.00;;;;;;5133751;27;20424;-57
2021/07/08 13:01:07;;;;;;;3.30;3.00;;;26.80;1.00;;;;;;5132100;27;20268;-58
2021/07/08 13:03:36;;;;;;;3.50;3.20;;;26.70;1.00;;;;;;5127200;27;20438;-58
2021/07/08 13:06:14;;;;;;;3.00;2.80;;;26.70;1.00;;;;;;5133613;27;20436;-58
2021/07/08 13:08:40;;;;;;;3.30;2.70;;;26.80;1.00;;;;;;5131051;27;20951;-58
2021/07/08 13:11:08;;;;;;;2.90;2.70;;;26.80;1.00;;;;;;5133242;27;20450;-57
2021/07/08 13:13:34;;;;;;;6.03;3.40;;;26.30;1.00;;;;;;5133812;27;20185;-59
2021/07/08 13:16:00;;;;;;;3.30;3.10;;;26.00;1.00;;;;;;5133007;27;20450;-58
2021/07/08 13:18:31;;;;;;;3.83;3.53;;;25.90;1.00;;;;;;5114336;27;20192;-58
2021/07/08 13:21:13;;;;;;;4.27;3.97;;;26.00;1.00;;;;;;5129407;27;20495;-58
2021/07/08 13:23:39;;;;;;;3.80;3.30;;;26.20;1.00;;;;;;5131399;27;20438;-58
2021/07/08 13:26:21;;;;;;;5.57;4.17;;;26.20;1.00;;;;;;5132914;27;20438;-59
2021/07/08 13:28:48;;;;;;;3.87;3.67;;;26.20;1.00;;;;;;5113882;27;20176;-57
2021/07/08 13:31:20;;;;;;;4.30;4.00;;;26.10;1.00;;;;;;5132232;27;20491;-60
2021/07/08 13:33:47;;;;;;;3.27;3.07;;;26.10;1.00;;;;;;5132424;27;20429;-58
2021/07/08 13:36:21;;;;;;;3.57;3.37;;;26.10;1.00;;;;;;5132646;27;20474;-59
2021/07/08 13:38:52;;;;;;;4.20;3.80;;;26.00;1.00;;;;;;5129526;27;20525;-59
2021/07/08 13:41:27;;;;;;;4.63;4.10;;;25.90;1.00;;;;;;5129653;27;20552;-58
2021/07/08 13:44:05;;;;;;;4.87;3.90;;;26.10;1.00;;;;;;5111888;27;20450;-60
2021/07/08 13:46:45;;;;;;;5.20;4.13;;;26.10;1.00;;;;;;5128929;27;20991;-58
2021/07/08 13:49:13;;;;;;;4.30;4.00;;;26.20;1.00;;;;;;5130130;27;20470;-58
2021/07/08 13:51:50;;;;;;;5.30;4.73;;;26.20;1.00;;;;;;5128411;27;20791;-58
2021/07/08 13:54:31;;;;;;;5.60;5.20;;;25.90;1.00;;;;;;5113309;27;20458;-58
2021/07/08 13:56:56;;;;;;;5.57;5.17;;;25.60;1.00;;;;;;5126873;27;20442;-58
2021/07/08 13:59:22;;;;;;;6.23;5.57;;;25.30;1.00;;;;;;5131285;27;20440;-58
2021/07/08 14:01:47;;;;;;;5.97;5.17;;;25.30;1.00;;;;;;5132378;27;20644;-58
2021/07/08 14:04:13;;;;;;;7.40;6.80;;;25.20;1.00;;;;;;5129081;27;20290;-58
2021/07/08 14:06:39;;;;;;;6.50;5.90;;;25.30;1.00;;;;;;5114466;27;20178;-59
2021/07/08 14:09:05;;;;;;;5.97;5.57;;;25.20;1.00;;;;;;5132271;27;20231;-59
2021/07/08 14:11:32;;;;;;;7.10;6.40;;;24.90;1.00;;;;;;5131257;27;20829;-57
2021/07/08 14:13:59;;;;;;;7.63;6.13;;;25.10;1.00;;;;;;5149134;27;20475;-59
2021/07/08 14:16:25;;;;;;;6.27;5.83;;;25.00;1.00;;;;;;5153016;27;20873;-60
2021/07/08 14:18:53;;;;;;;5.70;5.30;;;24.80;1.00;;;;;;5153281;27;20487;-58
2021/07/08 14:21:19;;;;;;;6.37;5.77;;;24.70;1.00;;;;;;5130990;27;20439;-59
2021/07/08 14:23:47;;;;;;;6.50;5.47;;;24.70;1.00;;;;;;5132214;27;20458;-59
2021/07/08 14:26:13;;;;;;;6.07;5.57;;;24.60;1.00;;;;;;5142393;27;20440;-57
2021/07/08 14:28:38;;;;;;;5.13;4.70;;;24.60;1.00;;;;;;5152632;27;20430;-58
2021/07/08 14:31:04;;;;;;;6.43;5.83;;;24.60;1.00;;;;;;5140583;27;20939;-60
2021/07/08 14:33:30;;;;;;;5.57;5.07;;;24.70;1.00;;;;;;5108378;27;20185;-58
2021/07/08 14:35:56;;;;;;;6.20;5.70;;;24.70;1.00;;;;;;5128669;27;20181;-58
2021/07/08 14:38:22;;;;;;;5.90;5.37;;;24.60;1.00;;;;;;5128688;27;20545;-57
2021/07/08 14:40:48;;;;;;;5.80;5.30;;;24.50;1.00;;;;;;5128985;27;20697;-57
2021/07/08 14:43:27;;;;;;;5.60;5.20;;;24.30;1.00;;;;;;5129033;27;20658;-58
2021/07/08 14:45:53;;;;;;;6.63;6.13;;;24.10;1.00;;;;;;5131181;27;20442;-59
2021/07/08 14:48:22;;;;;;;6.30;5.70;;;24.10;1.00;;;;;;5130695;27;20492;-57
2021/07/08 14:50:49;;;;;;;6.80;6.30;;;24.30;1.00;;;;;;5127447;27;20466;-58
2021/07/08 14:53:15;;;;;;;6.20;5.60;;;24.20;1.00;;;;;;5113015;27;20522;-60
2021/07/08 14:55:40;;;;;;;5.50;5.10;;;24.30;1.00;;;;;;5128047;27;20523;-59
2021/07/08 14:58:06;;;;;;;5.70;5.07;;;24.30;1.00;;;;;;5133608;27;20899;-63
2021/07/08 15:00:32;;;;;;;5.90;4.77;;;24.00;1.00;;;;;;5131321;27;20181;-62
2021/07/08 15:02:58;;;;;;;5.40;5.00;;;23.70;1.00;;;;;;5131515;27;20622;-62
2021/07/08 15:05:24;;;;;;;8.27;7.47;;;23.50;1.00;;;;;;5131701;27;20287;-62
2021/07/08 15:07:49;;;;;;;10.87;7.90;;;23.50;1.00;;;;;;5131336;27;20587;-62
2021/07/08 15:10:15;;;;;;;4.83;4.53;;;23.40;1.00;;;;;;5126890;27;20186;-63
2021/07/08 15:12:40;;;;;;;6.03;5.53;;;23.30;1.00;;;;;;5129690;27;20185;-62
2021/07/08 15:24:27;;;;;;;6.23;5.63;;;22.90;1.00;;;;;;4924923;29;20491;-63
2021/07/08 15:26:52;;;;;;;6.27;5.67;;;22.90;1.00;;;;;;4987216;28;20347;-62
2021/07/08 15:29:18;;;;;;;6.77;5.87;;;22.90;1.00;;;;;;5063601;27;20677;-62
2021/07/08 15:31:43;;;;;;;5.90;5.40;;;22.90;1.00;;;;;;5130870;27;20818;-63
2021/07/08 15:34:09;;;;;;;6.13;5.73;;;22.90;1.00;;;;;;5127550;27;20249;-63
2021/07/08 15:36:38;;;;;;;6.60;5.27;;;23.00;1.00;;;;;;5128106;27;20178;-61
2021/07/08 15:39:08;;;;;;;6.20;5.63;;;22.90;1.00;;;;;;5129105;27;20443;-61
2021/07/08 15:41:34;;;;;;;6.23;5.60;;;22.80;1.00;;;;;;5130238;27;20439;-62
2021/07/08 15:44:00;;;;;;;6.13;5.70;;;22.70;1.00;;;;;;5126718;27;20699;-62
2021/07/08 15:46:26;;;;;;;6.57;5.97;;;22.70;1.00;;;;;;5130748;27;21077;-62
2021/07/08 15:48:52;;;;;;;6.03;5.53;;;22.70;1.00;;;;;;5130707;27;20795;-62
2021/07/08 15:51:19;;;;;;;5.97;5.43;;;22.70;1.00;;;;;;5130104;27;20177;-62
2021/07/08 15:53:46;;;;;;;6.03;5.50;;;22.50;1.00;;;;;;5129426;27;20446;-60
2021/07/08 15:56:13;;;;;;;7.07;6.40;;;22.40;1.00;;;;;;5130325;27;20530;-60
2021/07/08 15:58:40;;;;;;;8.10;7.40;;;22.30;1.00;;;;;;5128486;27;20946;-60
2021/07/08 16:01:08;;;;;;;7.60;6.90;;;22.20;1.00;;;;;;5129427;27;20446;-60
2021/07/08 16:03:35;;;;;;;7.50;6.80;;;22.10;1.00;;;;;;5128780;27;20454;-62
2021/07/08 16:06:01;;;;;;;8.40;7.60;;;21.80;1.00;;;;;;5113006;27;20446;-61
2021/07/08 16:08:27;;;;;;;8.30;7.50;;;21.50;1.00;;;;;;5132889;27;20855;-61
2021/07/08 16:10:53;;;;;;;9.43;8.53;;;21.40;1.00;;;;;;5133978;27;20430;-59
2021/07/08 16:13:19;;;;;;;9.27;8.53;;;21.50;1.00;;;;;;5131482;27;20439;-62
2021/07/08 16:15:45;;;;;;;9.27;8.57;;;21.60;1.00;;;;;;5134752;27;20454;-62
2021/07/08 16:18:12;;;;;;;8.87;8.17;;;21.60;1.00;;;;;;5132159;27;20181;-62
2021/07/08 16:20:38;;;;;;;8.07;7.37;;;21.70;1.00;;;;;;5132113;27;20434;-63
2021/07/08 16:23:04;;;;;;;8.70;7.97;;;21.90;1.00;;;;;;5116374;27;20495;-63
2021/07/08 16:25:29;;;;;;;8.30;7.70;;;22.10;1.00;;;;;;5134625;27;20502;-62
2021/07/08 16:27:55;;;;;;;8.40;7.60;;;22.30;1.00;;;;;;5135251;27;20507;-62
2021/07/08 16:30:22;;;;;;;7.43;6.80;;;22.40;1.00;;;;;;5134928;27;20180;-62
2021/07/08 16:32:48;;;;;;;8.00;7.40;;;22.40;1.00;;;;;;5116515;27;20309;-62
2021/07/08 16:35:14;;;;;;;8.10;7.40;;;22.50;1.00;;;;;;5134726;27;20770;-62
2021/07/08 16:37:41;;;;;;;7.47;6.87;;;22.50;1.00;;;;;;5133862;27;20696;-63
2021/07/08 16:40:10;;;;;;;8.37;7.67;;;22.70;1.00;;;;;;5132413;27;20474;-63
2021/07/08 16:42:36;;;;;;;8.33;7.67;;;22.70;1.00;;;;;;5113243;27;20439;-63
2021/07/08 16:45:02;;;;;;;8.97;7.17;;;22.70;1.00;;;;;;5133884;27;20872;-62
2021/07/08 16:47:28;;;;;;;8.93;8.10;;;22.70;1.00;;;;;;5132601;27;20438;-62
2021/07/08 16:49:53;;;;;;;7.70;7.00;;;22.80;1.00;;;;;;5131694;27;20462;-62
2021/07/08 16:52:19;;;;;;;7.30;6.60;;;22.60;1.00;;;;;;5130316;27;20184;-60
2021/07/08 16:54:45;;;;;;;7.50;6.70;;;22.30;1.00;;;;;;5137868;27;20185;-62
2021/07/08 16:57:11;;;;;;;8.40;7.60;;;22.20;1.00;;;;;;5135383;27;20273;-62
2021/07/08 16:59:37;;;;;;;7.20;6.60;;;22.30;1.00;;;;;;5133361;27;20938;-62
2021/07/08 17:02:03;;;;;;;7.80;7.03;;;22.20;1.00;;;;;;5133454;27;20945;-64
2021/07/08 17:04:29;;;;;;;9.10;8.40;;;22.30;1.00;;;;;;5131734;27;20466;-64
2021/07/08 17:06:56;;;;;;;8.23;7.60;;;22.40;1.00;;;;;;5132131;27;20427;-64
2021/07/08 17:09:28;;;;;;;8.17;7.47;;;22.40;1.00;;;;;;5131629;27;20450;-62
2021/07/08 17:11:54;;;;;;;8.70;8.00;;;22.60;1.00;;;;;;5113933;27;20439;-63
2021/07/08 17:14:22;;;;;;;9.00;8.30;;;22.60;1.00;;;;;;5133080;27;20868;-63
2021/07/08 17:16:48;;;;;;;8.17;7.57;;;22.70;1.00;;;;;;5132865;27;20447;-63
2021/07/08 17:19:13;;;;;;;7.10;6.60;;;22.60;1.00;;;;;;5131641;27;21210;-61
2021/07/08 17:21:39;;;;;;;8.80;7.93;;;22.40;1.00;;;;;;5130897;27;20445;-62
2021/07/08 17:24:04;;;;;;;7.63;7.00;;;22.30;1.00;;;;;;5114255;27;20281;-62
2021/07/08 17:26:30;;;;;;;7.63;7.03;;;22.20;1.00;;;;;;5114684;27;20372;-63
2021/07/08 17:28:56;;;;;;;8.77;7.97;;;22.20;1.00;;;;;;5130520;27;20258;-62
2021/07/08 17:31:22;;;;;;;8.07;7.40;;;22.20;1.00;;;;;;5132371;27;20173;-62
2021/07/08 17:33:48;;;;;;;8.20;7.60;;;22.10;1.00;;;;;;5133198;27;20242;-62
2021/07/08 17:36:14;;;;;;;8.23;7.60;;;21.90;1.00;;;;;;5131134;27;20447;-63
2021/07/08 17:38:39;;;;;;;8.83;8.07;;;21.80;1.00;;;;;;5131269;27;20184;-62
2021/07/08 17:41:05;;;;;;;7.57;6.97;;;21.70;1.00;;;;;;5143681;27;20169;-62
2021/07/08 17:43:30;;;;;;;7.90;7.30;;;21.70;1.00;;;;;;5131774;27;20602;-63
2021/07/08 17:45:56;;;;;;;9.43;8.53;;;21.60;1.00;;;;;;5132076;27;20193;-64
2021/07/08 17:48:22;;;;;;;9.07;8.10;;;21.70;1.00;;;;;;5130701;27;20234;-64
2021/07/08 17:50:47;;;;;;;8.10;7.50;;;21.60;1.00;;;;;;5132221;27;20693;-63
2021/07/08 17:53:14;;;;;;;9.93;7.83;;;21.80;1.00;;;;;;5128099;27;20227;-63
2021/07/08 17:55:39;;;;;;;8.93;8.23;;;21.90;1.00;;;;;;5127593;27;20196;-62
2021/07/08 17:58:05;;;;;;;9.97;7.83;;;21.90;1.00;;;;;;5112695;27;20434;-64
2021/07/08 18:00:31;;;;;;;9.17;7.97;;;21.90;1.00;;;;;;5132765;27;20208;-62
2021/07/08 18:02:56;;;;;;;8.07;7.33;;;21.90;1.00;;;;;;5131782;27;20201;-62
2021/07/08 18:05:22;;;;;;;8.87;8.17;;;21.90;1.00;;;;;;5111366;27;20249;-62
2021/07/08 18:07:49;;;;;;;9.80;9.00;;;21.90;1.00;;;;;;5114829;27;20531;-63
2021/07/08 18:10:16;;;;;;;10.40;9.50;;;22.00;1.00;;;;;;5132002;27;20526;-63
2021/07/08 18:12:41;;;;;;;10.20;9.40;;;21.90;1.00;;;;;;5132649;27;20430;-63
2021/07/08 18:15:15;;;;;;;9.30;8.57;;;21.80;1.00;;;;;;5140578;27;20438;-63
2021/07/08 18:17:42;;;;;;;10.30;9.60;;;21.70;1.00;;;;;;5130597;27;20651;-62
2021/07/08 18:20:11;;;;;;;8.73;8.13;;;21.70;1.00;;;;;;5131809;27;20442;-62
2021/07/08 18:22:37;;;;;;;8.57;7.87;;;21.90;1.00;;;;;;5132066;27;20787;-63
2021/07/08 18:25:06;;;;;;;8.70;8.00;;;22.10;1.00;;;;;;5132022;27;20478;-62
2021/07/08 18:27:31;;;;;;;8.90;8.20;;;22.00;1.00;;;;;;5131448;27;20434;-63
2021/07/08 18:29:57;;;;;;;9.07;8.27;;;22.00;1.00;;;;;;5129814;27;20435;-63
2021/07/08 18:32:22;;;;;;;9.33;8.53;;;22.20;1.00;;;;;;5129635;27;20906;-62
2021/07/08 18:34:48;;;;;;;8.43;7.83;;;22.20;1.00;;;;;;5131307;27;20312;-63
2021/07/08 18:37:13;;;;;;;8.80;8.03;;;22.20;1.00;;;;;;5132574;27;20257;-62
2021/07/08 18:39:39;;;;;;;8.37;7.70;;;22.20;1.00;;;;;;5132436;27;20186;-62
2021/07/08 18:42:04;;;;;;;8.33;7.63;;;22.10;1.00;;;;;;5130180;27;20177;-63
2021/07/08 18:44:30;;;;;;;10.23;8.50;;;22.10;1.00;;;;;;5131776;27;20296;-64
2021/07/08 18:46:56;;;;;;;9.20;8.40;;;22.10;1.00;;;;;;5128009;27;20181;-62
2021/07/08 18:49:21;;;;;;;8.83;8.13;;;22.10;1.00;;;;;;5125891;27;20256;-63
2021/07/08 18:51:47;;;;;;;9.47;8.67;;;22.10;1.00;;;;;;5112521;27;20729;-64
2021/07/08 18:54:13;;;;;;;8.10;7.40;;;22.10;1.00;;;;;;5129254;27;20223;-63
2021/07/08 18:56:38;;;;;;;8.43;7.70;;;22.10;1.00;;;;;;5128733;27;20272;-62
2021/07/08 18:59:04;;;;;;;9.10;8.40;;;22.10;1.00;;;;;;5130502;27;20610;-63
2021/07/08 19:01:30;;;;;;;8.83;8.00;;;22.10;1.00;;;;;;5112293;27;20200;-63
2021/07/08 19:03:55;;;;;;;8.70;7.90;;;22.20;1.00;;;;;;5110773;27;20855;-63
2021/07/08 19:06:21;;;;;;;9.63;8.83;;;22.10;1.00;;;;;;5131735;27;20208;-64
2021/07/08 19:08:47;;;;;;;10.07;9.37;;;22.10;1.00;;;;;;5127468;27;20245;-65
2021/07/08 19:11:13;;;;;;;10.03;9.17;;;21.90;1.00;;;;;;5130783;27;20185;-63
2021/07/08 19:13:40;;;;;;;9.43;8.73;;;21.90;1.00;;;;;;5126905;27;20169;-65
2021/07/08 19:16:06;;;;;;;9.80;9.00;;;21.90;1.00;;;;;;5110891;27;20501;-64
2021/07/08 19:18:32;;;;;;;10.27;9.40;;;21.90;1.00;;;;;;5130050;27;20419;-63
2021/07/08 19:20:57;;;;;;;9.50;8.70;;;21.80;1.00;;;;;;5129309;27;20401;-63
2021/07/08 19:23:25;;;;;;;9.93;9.13;;;21.80;1.00;;;;;;5128540;27;20230;-61
2021/07/08 19:25:51;;;;;;;8.50;7.90;;;21.80;1.00;;;;;;5128172;27;20730;-63
2021/07/08 19:28:17;;;;;;;9.93;9.13;;;21.30;1.00;;;;;;5110698;27;20475;-63
2021/07/08 19:30:43;;;;;;;9.20;8.33;;;21.70;1.00;;;;;;5128307;27;20169;-63
2021/07/08 19:33:09;;;;;;;10.30;9.50;;;21.60;1.00;;;;;;5125290;27;20444;-62
2021/07/08 19:35:35;;;;;;;9.93;9.07;;;21.50;1.00;;;;;;5095333;27;20193;-62
2021/07/08 19:38:00;;;;;;;8.77;8.07;;;21.60;1.00;;;;;;5130496;27;20470;-63
2021/07/08 19:40:26;;;;;;;9.50;8.80;;;21.60;1.00;;;;;;5129088;27;20611;-65
2021/07/08 19:42:53;;;;;;;10.33;9.27;;;21.70;1.00;;;;;;5128997;27;20185;-63
2021/07/08 19:45:22;;;;;;;9.87;8.87;;;21.80;1.00;;;;;;5130205;27;20974;-64
2021/07/08 19:47:48;;;;;;;8.80;8.10;;;21.70;1.00;;;;;;5124417;27;20442;-63
2021/07/08 19:50:18;;;;;;;8.97;8.07;;;21.70;1.00;;;;;;5127965;27;20454;-64
2021/07/08 19:52:44;;;;;;;9.83;9.07;;;21.70;1.00;;;;;;5131032;27;20540;-64
2021/07/08 19:55:10;;;;;;;9.30;8.30;;;21.60;1.00;;;;;;5110476;27;20510;-64
2021/07/08 19:57:35;;;;;;;9.63;8.50;;;21.60;1.00;;;;;;5128603;27;20267;-64
2021/07/08 20:00:01;;;;;;;9.17;7.90;;;21.60;1.00;;;;;;5129856;27;21037;-63
2021/07/08 20:02:27;;;;;;;10.47;9.60;;;21.60;1.00;;;;;;5129175;27;20189;-63
2021/07/08 20:04:52;;;;;;;9.33;8.63;;;21.60;1.00;;;;;;5130010;27;20241;-64
2021/07/08 20:07:21;;;;;;;10.47;9.40;;;21.60;1.00;;;;;;5129978;27;20196;-63
2021/07/08 20:09:47;;;;;;;10.80;9.90;;;21.60;1.00;;;;;;5129669;27;20745;-64
2021/07/08 20:12:12;;;;;;;11.70;9.67;;;21.60;1.00;;;;;;5129564;27;20431;-63
2021/07/08 20:14:38;;;;;;;9.70;9.00;;;21.60;1.00;;;;;;5128189;27;20189;-63
2021/07/08 20:17:03;;;;;;;11.53;9.10;;;21.50;1.00;;;;;;5127240;27;20185;-63
2021/07/08 20:19:29;;;;;;;10.90;9.70;;;21.50;1.00;;;;;;5149682;27;20225;-63
2021/07/08 20:21:55;;;;;;;10.17;9.17;;;21.50;1.00;;;;;;5132254;27;20185;-64
2021/07/08 20:24:20;;;;;;;11.10;9.83;;;21.40;1.00;;;;;;5111428;27;20203;-64
2021/07/08 20:26:46;;;;;;;10.70;9.80;;;21.40;1.00;;;;;;5123954;27;20189;-64
2021/07/08 20:29:12;;;;;;;10.80;9.80;;;21.60;1.00;;;;;;5128114;27;20173;-63
2021/07/08 20:31:38;;;;;;;13.83;10.37;;;21.60;1.00;;;;;;5129379;27;20200;-63
2021/07/08 20:34:03;;;;;;;11.63;10.63;;;21.70;1.00;;;;;;5129579;27;20234;-63
2021/07/08 20:36:29;;;;;;;10.77;9.87;;;21.80;1.00;;;;;;5136019;27;20207;-63
2021/07/08 20:38:55;;;;;;;11.10;9.93;;;21.70;1.00;;;;;;5126976;27;20272;-66
2021/07/08 20:41:20;;;;;;;11.10;9.90;;;21.70;1.00;;;;;;5108741;27;20220;-63
2021/07/08 20:43:46;;;;;;;10.57;9.77;;;21.60;1.00;;;;;;5128252;27;20204;-64
2021/07/08 20:46:12;;;;;;;10.30;9.40;;;21.60;1.00;;;;;;5127942;27;20230;-65
2021/07/08 20:48:38;;;;;;;9.47;8.67;;;21.70;1.00;;;;;;5127333;27;20969;-62
2021/07/08 20:51:03;;;;;;;16.43;11.93;;;21.60;1.00;;;;;;5128303;27;20210;-62
2021/07/08 20:53:29;;;;;;;10.90;10.10;;;21.60;1.00;;;;;;5131885;27;20205;-61
2021/07/08 20:55:56;;;;;;;11.30;10.30;;;21.50;1.00;;;;;;5130226;27;20183;-64
2021/07/08 20:58:21;;;;;;;10.50;9.40;;;21.50;1.00;;;;;;5132449;27;20538;-63
2021/07/08 21:00:47;;;;;;;11.27;10.37;;;21.40;1.00;;;;;;5128809;27;21003;-63
2021/07/08 21:03:12;;;;;;;11.80;10.67;;;21.50;1.00;;;;;;5130552;27;20182;-62
2021/07/08 21:05:38;;;;;;;12.13;11.23;;;21.50;1.00;;;;;;5130519;27;20290;-64
2021/07/08 21:08:04;;;;;;;12.50;11.50;;;21.50;1.00;;;;;;5133116;27;20192;-64
2021/07/08 21:10:30;;;;;;;10.90;10.00;;;21.60;1.00;;;;;;5128035;27;20200;-63